Time;durP1;ratioP1;P1;durP2;ratioP2;P2;SDS_P1;SDS_P2;PMS_P1;PMS_P2;Temp;Humidity;BMP_temperature;BMP_pressure;BME280_temperature;BME280_humidity;BME280_pressure;Samples;Min_cycle;Max_cycle;Signal;HPM_P1;HPM_P2
2023/01/13 00:01:14;;;;;;;327.45;153.05;;;;;;;11.91;80.96;98750.69;4845718;29;20064;-60
2023/01/13 00:04:03;;;;;;;308.77;152.85;;;;;;;11.88;81.13;98759.06;4859993;29;20053;-57
2023/01/13 00:06:45;;;;;;;315.70;146.80;;;;;;;11.83;81.33;98761.47;4859826;29;20067;-58
2023/01/13 00:09:34;;;;;;;310.02;150.27;;;;;;;11.90;81.30;98752.53;4862702;29;20112;-58
2023/01/13 00:12:16;;;;;;;322.25;154.10;;;;;;;11.98;81.03;98754.19;4862565;29;20052;-58
2023/01/13 00:15:05;;;;;;;301.38;144.93;;;;;;;11.94;80.66;98748.47;4845820;29;20084;-57
2023/01/13 00:17:48;;;;;;;311.80;141.45;;;;;;;11.96;80.07;98741.13;4860860;29;20060;-58
2023/01/13 00:20:37;;;;;;;294.23;134.10;;;;;;;11.98;80.24;98733.78;4848069;29;20085;-59
2023/01/13 00:23:19;;;;;;;288.98;132.90;;;;;;;12.01;80.23;98741.34;4864522;29;20587;-56
2023/01/13 00:26:14;;;;;;;283.38;126.88;;;;;;;11.97;79.43;98758.69;4866641;29;20045;-57
2023/01/13 00:28:58;;;;;;;263.10;122.75;;;;;;;11.88;79.62;98756.41;4857819;29;20208;-55
2023/01/13 00:31:47;;;;;;;264.63;120.15;;;;;;;12.19;79.50;98762.00;4850964;29;20053;-55
2023/01/13 00:34:35;;;;;;;246.80;113.93;;;;;;;12.30;79.05;98773.88;4850243;29;20057;-57
2023/01/13 00:37:31;;;;;;;263.67;115.45;;;;;;;12.05;79.08;98771.75;4854071;29;20059;-55
2023/01/13 00:40:08;;;;;;;254.85;117.78;;;;;;;12.10;78.98;98768.50;4834167;29;20054;-58
2023/01/13 00:43:22;;;;;;;269.25;120.80;;;;;;;12.29;78.65;98769.56;4860685;29;20080;-57
2023/01/13 00:45:58;;;;;;;242.70;114.45;;;;;;;12.41;78.59;98770.63;4835696;29;20053;-56
2023/01/13 00:48:48;;;;;;;257.63;113.85;;;;;;;12.36;78.48;98775.72;4869093;29;20521;-57
2023/01/13 00:51:37;;;;;;;260.92;115.78;;;;;;;12.30;78.70;98780.00;4871400;29;20125;-56
2023/01/13 00:54:19;;;;;;;256.63;117.40;;;;;;;12.35;78.32;98790.00;4862295;29;20076;-56
2023/01/13 00:57:09;;;;;;;256.17;120.35;;;;;;;12.25;78.67;98785.09;4865741;29;20061;-57
2023/01/13 00:59:51;;;;;;;266.73;122.35;;;;;;;12.43;78.87;98790.66;4860469;29;20080;-56
2023/01/13 01:02:42;;;;;;;260.70;122.45;;;;;;;12.35;78.01;98793.47;4866759;29;20064;-58
2023/01/13 01:05:24;;;;;;;257.52;119.28;;;;;;;12.17;79.05;98795.09;4874144;29;20230;-58
2023/01/13 01:08:13;;;;;;;257.77;119.70;;;;;;;12.00;79.72;98802.56;4868154;29;20140;-57
2023/01/13 01:11:08;;;;;;;260.75;117.30;;;;;;;11.98;80.26;98800.13;4857986;29;20041;-59
2023/01/13 01:13:59;;;;;;;259.13;119.28;;;;;;;11.92;79.96;98798.25;4837155;29;20580;-57
2023/01/13 01:16:41;;;;;;;259.10;118.00;;;;;;;11.90;80.44;98802.97;4837319;29;20057;-58
2023/01/13 01:19:30;;;;;;;259.30;120.47;;;;;;;11.87;80.73;98808.66;4823176;29;20078;-57
2023/01/13 01:22:16;;;;;;;255.55;117.82;;;;;;;12.05;80.27;98813.41;4866673;29;20340;-56
2023/01/13 01:25:07;;;;;;;265.92;120.43;;;;;;;12.31;79.53;98807.34;4840849;29;20163;-56
2023/01/13 01:27:49;;;;;;;256.08;117.30;;;;;;;12.49;78.52;98810.25;4873848;29;20059;-58
2023/01/13 01:30:38;;;;;;;251.10;118.95;;;;;;;12.54;78.28;98815.78;4861427;29;20045;-58
2023/01/13 01:33:30;;;;;;;249.38;117.00;;;;;;;12.59;77.74;98819.47;4840420;29;20542;-57
2023/01/13 01:36:28;;;;;;;251.27;118.20;;;;;;;12.31;78.92;98829.44;4854250;29;20068;-58
2023/01/13 01:39:17;;;;;;;259.88;116.82;;;;;;;12.52;78.23;98831.91;4854175;29;20062;-57
2023/01/13 01:45:25;;;;;;;234.18;111.72;;;;;;;11.96;80.15;98841.97;4849437;29;20061;-59
2023/01/13 01:48:02;;;;;;;;;;;;;;;12.00;80.43;98847.69;4853644;29;20053;-58
2023/01/13 01:50:57;;;;;;;;;;;;;;;11.91;80.51;98848.88;4854447;29;20421;-58
2023/01/13 01:53:33;;;;;;;243.10;113.40;;;;;;;11.87;80.83;98867.03;4868143;29;19931;-60
2023/01/13 01:56:27;;;;;;;265.50;122.13;;;;;;;11.86;81.25;98864.59;4863445;29;20153;-58
2023/01/13 01:59:03;;;;;;;258.85;121.60;;;;;;;11.93;81.18;98865.44;4853775;29;20474;-60
2023/01/13 02:01:53;;;;;;;259.67;120.85;;;;;;;11.94;81.23;98862.59;4842320;29;20056;-59
2023/01/13 02:04:39;;;;;;;263.63;122.50;;;;;;;11.94;81.01;98870.56;4858517;29;20057;-59
2023/01/13 02:07:38;;;;;;;295.30;130.63;;;;;;;11.99;80.96;98883.25;4872110;29;20064;-59
2023/01/13 02:10:18;;;;;;;292.15;131.88;;;;;;;11.81;81.49;98890.91;4872893;29;20537;-57
2023/01/13 02:13:17;;;;;;;317.23;132.80;;;;;;;11.88;81.12;98883.78;4853852;29;20061;-60
2023/01/13 02:16:19;;;;;;;295.75;129.52;;;;;;;11.95;80.79;98889.97;4854607;29;20045;-58
2023/01/13 02:19:57;;;;;;;290.23;124.13;;;;;;;11.98;80.79;98892.22;4865207;29;20057;-57
2023/01/13 02:23:04;;;;;;;281.08;122.07;;;;;;;11.82;81.22;98906.59;4845639;29;20061;-59
2023/01/13 02:26:02;;;;;;;;;;;;;;;12.02;81.19;98906.72;4859460;29;20065;-59
2023/01/13 02:32:10;;;;;;;253.02;108.50;;;;;;;11.69;81.64;98909.97;4864057;29;20042;-59
2023/01/13 02:35:05;;;;;;;243.55;105.20;;;;;;;11.60;82.00;98916.44;4861682;29;20140;-59
2023/01/13 02:38:03;;;;;;;255.52;105.03;;;;;;;11.61;81.82;98918.06;4872897;29;20064;-59
2023/01/13 02:40:48;;;;;;;252.20;105.32;;;;;;;11.78;81.73;98923.09;4865271;29;20411;-58
2023/01/13 02:46:47;;;;;;;301.25;116.78;;;;;;;11.80;81.05;98937.84;4861157;29;20071;-58
2023/01/13 02:49:44;;;;;;;283.85;114.93;;;;;;;11.66;81.36;98941.38;4857594;29;20072;-58
2023/01/13 02:52:48;;;;;;;269.75;108.53;;;;;;;11.86;81.52;98946.88;4857584;29;20057;-58
2023/01/13 02:55:45;;;;;;;;;;;;;;;11.71;81.37;98947.75;4862095;29;20145;-59
2023/01/13 02:58:26;;;;;;;300.17;115.10;;;;;;;11.70;81.10;98954.06;4853681;29;20413;-58
2023/01/13 03:01:22;;;;;;;331.05;129.32;;;;;;;11.61;81.29;98952.56;4853739;29;20102;-58
2023/01/13 03:03:58;;;;;;;336.92;135.73;;;;;;;11.51;81.51;98967.16;4854084;29;20133;-58
2023/01/13 03:06:56;;;;;;;352.98;143.13;;;;;;;11.48;81.60;98965.72;4864894;29;20397;-59
2023/01/13 03:09:52;;;;;;;389.05;150.13;;;;;;;11.48;81.82;98971.03;4869308;29;20094;-60
2023/01/13 03:13:13;;;;;;;400.93;162.23;;;;;;;11.51;81.35;98975.94;4871746;29;20576;-58
2023/01/13 03:16:28;;;;;;;451.45;175.13;;;;;;;11.56;81.91;98985.97;4845814;29;20052;-59
2023/01/13 03:19:42;;;;;;;442.38;177.00;;;;;;;11.46;81.72;98994.25;4846013;29;20152;-59
2023/01/13 03:22:48;;;;;;;454.33;180.80;;;;;;;11.33;81.91;99001.31;4863623;29;20049;-59
2023/01/13 03:25:44;;;;;;;449.73;182.13;;;;;;;11.32;82.27;99011.09;4853301;29;20606;-58
2023/01/13 03:28:36;;;;;;;453.40;183.02;;;;;;;11.45;81.89;99010.38;4855380;29;20572;-58
2023/01/13 03:31:36;;;;;;;459.30;183.43;;;;;;;11.35;82.61;99015.16;4833764;29;20132;-63
2023/01/13 03:34:18;;;;;;;452.88;178.82;;;;;;;11.25;82.43;99024.25;4842332;29;20722;-64
2023/01/13 03:37:19;;;;;;;435.48;170.15;;;;;;;11.22;83.15;99021.16;4838512;29;20054;-63
2023/01/13 03:40:06;;;;;;;394.50;144.30;;;;;;;11.25;82.99;99018.97;4848309;29;20064;-62
2023/01/13 03:46:26;;;;;;;286.70;99.63;;;;;;;11.13;83.62;99038.19;4838992;29;20084;-62
2023/01/13 03:49:19;;;;;;;286.10;100.03;;;;;;;11.09;83.72;99051.00;4840018;29;20698;-62
2023/01/13 03:52:07;;;;;;;265.40;99.20;;;;;;;11.16;84.28;99041.28;4847004;29;20050;-62
2023/01/13 03:55:05;;;;;;;289.17;103.40;;;;;;;11.16;84.07;99049.25;4847391;29;20710;-61
2023/01/13 03:58:20;;;;;;;292.45;105.70;;;;;;;11.21;84.10;99043.38;4834210;29;20060;-63
2023/01/13 04:01:04;;;;;;;300.00;106.85;;;;;;;11.24;83.89;99048.31;4816979;29;20103;-61
2023/01/13 04:04:30;;;;;;;309.77;109.82;;;;;;;11.29;83.60;99045.91;4826559;29;20577;-64
2023/01/13 04:07:33;;;;;;;340.75;116.35;;;;;;;11.23;83.91;99050.16;4823254;29;20074;-62
2023/01/13 04:10:40;;;;;;;313.45;112.05;;;;;;;11.32;83.81;99060.63;4836540;29;20068;-62
2023/01/13 04:13:21;;;;;;;305.27;110.05;;;;;;;11.33;83.54;99067.59;4839642;29;20708;-62
2023/01/13 04:16:17;;;;;;;276.17;101.10;;;;;;;11.40;83.55;99071.94;4849546;29;20157;-61
2023/01/13 04:18:53;;;;;;;282.23;101.70;;;;;;;11.54;82.97;99072.91;4817855;29;20114;-63
2023/01/13 04:21:41;;;;;;;251.13;96.15;;;;;;;11.63;82.99;99085.03;4839460;29;20703;-62
2023/01/13 04:24:31;;;;;;;265.75;95.47;;;;;;;11.66;82.79;99076.69;4850029;29;20088;-62
2023/01/13 04:27:13;;;;;;;281.70;103.50;;;;;;;11.66;82.79;99074.84;4850607;29;20451;-62
2023/01/13 04:30:02;;;;;;;284.38;102.80;;;;;;;11.75;82.85;99088.00;4856491;29;20049;-62
2023/01/13 04:32:44;;;;;;;287.45;104.25;;;;;;;11.76;82.37;99097.63;4848123;29;20042;-62
2023/01/13 04:35:33;;;;;;;270.88;96.80;;;;;;;11.78;81.99;99095.59;4845701;29;20077;-62
2023/01/13 04:38:20;;;;;;;241.95;88.25;;;;;;;11.79;82.33;99103.38;4854655;29;20067;-62
2023/01/13 04:41:09;;;;;;;224.25;81.32;;;;;;;11.89;81.97;99103.88;4843680;29;20077;-63
2023/01/13 04:43:51;;;;;;;189.52;69.57;;;;;;;11.80;82.26;99101.53;4856290;29;20465;-62
2023/01/13 04:46:40;;;;;;;172.70;65.97;;;;;;;12.01;82.30;99094.38;4859719;29;20053;-63
2023/01/13 04:49:36;;;;;;;148.15;63.53;;;;;;;12.19;81.48;99087.75;4839760;29;20382;-63
2023/01/13 04:52:12;;;;;;;134.38;56.42;;;;;;;12.19;81.25;99095.72;4844749;29;20083;-62
2023/01/13 04:55:07;;;;;;;146.10;59.17;;;;;;;12.24;81.34;99099.44;4853090;29;20057;-61
2023/01/13 04:57:43;;;;;;;150.93;62.08;;;;;;;12.40;80.79;99085.88;4855805;29;20064;-63
2023/01/13 05:00:32;;;;;;;177.50;66.78;;;;;;;12.68;80.46;99079.69;4858333;29;20137;-61
2023/01/13 05:03:14;;;;;;;204.07;76.68;;;;;;;12.81;79.14;99080.59;4853282;29;20160;-60
2023/01/13 05:06:09;;;;;;;204.40;76.45;;;;;;;12.63;79.37;99085.59;4855054;29;20037;-61
2023/01/13 05:08:45;;;;;;;198.90;76.85;;;;;;;12.50;79.26;99094.31;4856684;29;20459;-62
2023/01/13 05:17:42;;;;;;;194.75;80.68;;;;;;;12.70;79.78;99080.34;4855891;29;20500;-61
2023/01/13 05:20:31;;;;;;;184.25;76.82;;;;;;;12.85;79.61;99070.38;4849806;29;20060;-61
2023/01/13 05:26:20;;;;;;;169.88;73.13;;;;;;;12.98;78.18;99084.53;4854689;29;20065;-62
2023/01/13 05:29:09;;;;;;;179.02;72.50;;;;;;;12.93;79.00;99080.84;4855020;29;20057;-63
2023/01/13 05:31:51;;;;;;;153.77;69.47;;;;;;;12.95;78.88;99084.94;4854310;29;20053;-62
2023/01/13 05:34:46;;;;;;;158.43;70.97;;;;;;;12.99;78.99;99090.69;4854392;29;20404;-62
2023/01/13 05:37:35;;;;;;;149.32;66.10;;;;;;;13.02;78.58;99096.41;4860569;29;20564;-61
2023/01/13 05:43:32;;;;;;;172.23;73.82;;;;;;;12.92;78.42;99093.31;4860044;29;20140;-66
2023/01/13 05:46:20;;;;;;;162.95;72.93;;;;;;;13.01;78.39;99100.09;4855695;29;20077;-63
2023/01/13 05:49:04;;;;;;;158.82;75.03;;;;;;;12.91;78.02;99107.63;4865359;29;20685;-64
2023/01/13 05:51:52;;;;;;;166.82;72.80;;;;;;;13.25;78.52;99109.44;4854524;29;20496;-61
2023/01/13 05:54:41;;;;;;;150.93;68.85;;;;;;;13.14;77.72;99112.69;4856091;29;20060;-60
2023/01/13 05:57:30;;;;;;;150.50;68.93;;;;;;;13.09;78.13;99108.94;4857807;29;20055;-61
2023/01/13 06:00:13;;;;;;;154.10;68.75;;;;;;;13.02;78.12;99101.75;4856940;29;20136;-61
2023/01/13 06:03:02;;;;;;;168.50;67.63;;;;;;;13.15;78.14;99111.63;4855865;29;20443;-61
2023/01/13 06:05:45;;;;;;;157.57;67.82;;;;;;;13.17;78.11;99106.94;4872875;29;20497;-61
2023/01/13 06:08:35;;;;;;;147.52;63.35;;;;;;;13.15;77.66;99100.16;4858254;29;20054;-61
2023/01/13 06:11:31;;;;;;;136.88;61.60;;;;;;;13.40;77.67;99094.13;4853044;29;20781;-62
2023/01/13 06:14:07;;;;;;;137.18;61.65;;;;;;;13.25;77.24;99093.47;4853039;29;20118;-61
2023/01/13 06:17:01;;;;;;;172.77;70.25;;;;;;;13.14;77.93;99093.25;4852944;29;20054;-62
2023/01/13 06:19:37;;;;;;;187.73;74.10;;;;;;;13.23;78.63;99084.84;4856331;29;20057;-62
2023/01/13 06:22:35;;;;;;;160.43;67.70;;;;;;;13.32;77.65;99082.88;4869698;29;20517;-61
2023/01/13 06:25:52;;;;;;;149.15;62.65;;;;;;;13.29;77.47;99072.59;4863753;29;20049;-61
2023/01/13 06:28:41;;;;;;;154.73;67.37;;;;;;;13.34;77.54;99067.50;4840239;29;20060;-62
2023/01/13 06:31:31;;;;;;;162.82;64.93;;;;;;;13.42;77.40;99067.31;4859534;29;20052;-63
2023/01/13 06:34:15;;;;;;;167.75;69.10;;;;;;;13.44;76.78;99066.09;4855122;29;20062;-61
2023/01/13 06:37:11;;;;;;;169.77;69.75;;;;;;;13.69;76.91;99066.34;4854589;29;20041;-61
2023/01/13 06:40:02;;;;;;;171.25;73.18;;;;;;;13.76;75.59;99066.34;4854106;29;20057;-62
2023/01/13 06:45:56;;;;;;;186.35;82.18;;;;;;;13.53;75.84;99061.41;4852439;29;20052;-62
2023/01/13 06:48:45;;;;;;;193.73;80.55;;;;;;;13.52;76.27;99072.25;4856334;29;20109;-61
2023/01/13 06:51:27;;;;;;;174.50;77.25;;;;;;;13.65;75.53;99067.78;4857439;29;20057;-60
2023/01/13 06:54:16;;;;;;;198.23;79.95;;;;;;;13.67;75.83;99051.59;4860809;29;20073;-61
2023/01/13 06:56:58;;;;;;;188.98;81.55;;;;;;;13.72;75.87;99059.81;4854002;29;20049;-62
2023/01/13 06:59:47;;;;;;;179.75;79.30;;;;;;;13.84;76.08;99047.50;4854534;29;20144;-61
2023/01/13 07:02:30;;;;;;;205.85;84.90;;;;;;;13.73;75.49;99048.13;4858022;29;20063;-63
2023/01/13 07:05:20;;;;;;;175.82;75.07;;;;;;;13.78;75.71;99046.47;4869685;29;20049;-62
2023/01/13 07:08:02;;;;;;;208.70;81.53;;;;;;;13.79;75.15;99047.31;4855935;29;20057;-62
2023/01/13 07:10:51;;;;;;;202.15;84.47;;;;;;;13.74;75.71;99044.44;4854692;29;20438;-61
2023/01/13 07:16:43;;;;;;;190.13;77.13;;;;;;;13.93;74.88;99036.47;4840573;29;20481;-62
2023/01/13 07:19:25;;;;;;;210.65;79.47;;;;;;;13.85;75.18;99041.97;4854513;29;20059;-63
2023/01/13 07:22:14;;;;;;;201.55;84.30;;;;;;;13.97;75.02;99042.19;4848664;29;20045;-62
2023/01/13 07:24:56;;;;;;;212.00;82.68;;;;;;;14.03;74.95;99038.69;4850270;29;20137;-63
2023/01/13 07:27:45;;;;;;;216.98;82.60;;;;;;;13.94;74.57;99035.41;4850596;29;20053;-63
2023/01/13 07:30:28;;;;;;;219.25;84.45;;;;;;;14.05;74.15;99025.16;4851497;29;20139;-64
2023/01/13 07:33:17;;;;;;;202.25;82.25;;;;;;;14.06;74.41;99024.16;4853787;29;20129;-65
2023/01/13 07:36:14;;;;;;;191.77;80.40;;;;;;;14.11;74.16;99025.19;4846311;29;20058;-67
2023/01/13 07:39:03;;;;;;;191.45;79.32;;;;;;;14.09;74.34;99037.03;4836327;29;20068;-69
2023/01/13 07:44:52;;;;;;;166.57;70.68;;;;;;;13.99;74.28;99029.47;4818242;29;20064;-64
2023/01/13 07:47:41;;;;;;;159.43;71.60;;;;;;;13.77;74.57;99033.38;4828364;29;20137;-63
2023/01/13 07:50:36;;;;;;;158.63;71.88;;;;;;;13.59;74.95;99039.28;4841280;29;20118;-65
2023/01/13 07:53:12;;;;;;;164.30;70.43;;;;;;;13.57;74.54;99032.56;4833238;29;20058;-65
2023/01/13 07:56:07;;;;;;;159.88;68.90;;;;;;;13.61;74.73;99028.47;4832529;29;20110;-64
2023/01/13 07:58:48;;;;;;;144.52;64.10;;;;;;;13.52;74.76;99025.19;4844967;29;20431;-68
2023/01/13 08:01:37;;;;;;;148.45;66.90;;;;;;;13.64;75.38;99025.38;4832876;29;20126;-65
2023/01/13 08:04:26;;;;;;;142.30;64.65;;;;;;;13.59;75.43;99026.00;4847730;29;20533;-61
2023/01/13 08:07:15;;;;;;;136.27;59.83;;;;;;;13.47;75.67;99028.44;4852510;29;20121;-61
2023/01/13 08:10:04;;;;;;;127.88;57.63;;;;;;;13.56;75.75;99023.75;4847595;29;20543;-62
2023/01/13 08:13:21;;;;;;;141.32;59.40;;;;;;;13.59;75.72;99017.19;4836544;29;20073;-59
2023/01/13 08:16:14;;;;;;;136.60;58.22;;;;;;;13.64;75.36;99009.41;4837002;29;20607;-60
2023/01/13 08:18:59;;;;;;;132.45;58.05;;;;;;;13.59;75.91;99006.53;4840499;29;20496;-60
2023/01/13 08:21:48;;;;;;;135.70;58.13;;;;;;;13.95;74.00;98996.28;4840463;29;20502;-61
2023/01/13 08:24:30;;;;;;;128.27;58.50;;;;;;;13.90;74.32;98996.09;4836536;29;20058;-60
2023/01/13 08:27:19;;;;;;;129.10;56.58;;;;;;;13.59;75.25;99002.03;4829417;29;20057;-60
2023/01/13 08:30:15;;;;;;;131.63;57.97;;;;;;;13.69;74.67;98993.66;4848477;29;20118;-61
2023/01/13 08:32:51;;;;;;;128.45;54.58;;;;;;;13.83;74.73;98984.63;4850658;29;20475;-61
2023/01/13 08:35:51;;;;;;;133.90;57.58;;;;;;;14.01;74.88;98984.81;4840368;29;20116;-62
2023/01/13 08:38:41;;;;;;;137.77;59.75;;;;;;;13.99;74.46;98989.53;4865550;29;20053;-62
2023/01/13 08:44:32;;;;;;;127.22;56.15;;;;;;;14.53;72.70;98978.56;4853718;29;20057;-60
2023/01/13 08:47:21;;;;;;;137.00;58.45;;;;;;;14.12;72.79;98975.38;4849328;29;20062;-61
2023/01/13 08:50:17;;;;;;;119.47;54.40;;;;;;;14.16;72.84;98976.63;4853900;29;20117;-61
2023/01/13 08:52:53;;;;;;;107.78;51.42;;;;;;;14.17;72.34;98979.03;4853111;29;20160;-61
2023/01/13 08:55:42;;;;;;;119.30;54.97;;;;;;;14.09;72.76;98975.78;4871380;29;20077;-61
2023/01/13 08:58:31;;;;;;;122.30;54.58;;;;;;;13.99;73.32;98976.22;4856886;29;20045;-60
2023/01/13 09:01:22;;;;;;;131.77;54.45;;;;;;;13.88;74.16;98980.34;4852490;29;20053;-60
2023/01/13 09:04:11;;;;;;;139.75;59.03;;;;;;;13.80;74.31;98985.06;4860771;29;20086;-60
2023/01/13 09:07:01;;;;;;;125.75;58.33;;;;;;;13.79;74.93;98991.41;4861633;29;20056;-59
2023/01/13 09:09:44;;;;;;;148.55;60.65;;;;;;;13.77;74.77;98990.78;4868086;29;20053;-59
2023/01/13 09:15:35;;;;;;;132.15;62.15;;;;;;;13.67;75.04;98991.22;4874228;29;20544;-58
2023/01/13 09:18:30;;;;;;;138.95;62.42;;;;;;;13.68;74.42;98997.31;4864202;29;20145;-60
2023/01/13 09:21:08;;;;;;;151.25;63.65;;;;;;;13.54;74.26;98990.41;4857987;29;20558;-59
2023/01/13 09:23:57;;;;;;;147.93;66.40;;;;;;;13.55;74.69;98995.50;4854859;29;20101;-59
2023/01/13 09:26:39;;;;;;;143.65;66.85;;;;;;;13.58;74.63;99002.25;4853009;29;20053;-59
2023/01/13 09:29:34;;;;;;;150.05;69.63;;;;;;;13.50;75.10;98993.44;4839396;29;20542;-59
2023/01/13 09:32:14;;;;;;;146.68;68.18;;;;;;;13.65;75.26;98990.59;4860979;29;20062;-59
2023/01/13 09:35:00;;;;;;;149.43;68.32;;;;;;;13.76;75.00;99003.25;4855537;29;20085;-59
2023/01/13 09:37:54;;;;;;;150.07;67.75;;;;;;;13.72;74.54;98996.72;4837499;29;20060;-59
2023/01/13 09:40:30;;;;;;;148.25;66.90;;;;;;;13.70;74.11;98995.28;4847244;29;20067;-59
2023/01/13 09:43:53;;;;;;;141.70;65.57;;;;;;;13.70;74.58;98993.47;4838928;29;20547;-63
2023/01/13 09:46:47;;;;;;;151.65;66.93;;;;;;;13.75;74.50;98990.19;4500542;29;10000379;-61
2023/01/13 09:49:48;;;;;;;162.25;69.32;;;;;;;13.67;74.26;98987.72;4839237;29;20049;-63
2023/01/13 09:52:26;;;;;;;160.43;71.75;;;;;;;13.72;74.49;98987.94;4832980;29;20069;-61
2023/01/13 09:55:48;;;;;;;172.07;75.95;;;;;;;13.79;73.68;98986.06;4838050;29;20150;-63
2023/01/13 09:58:24;;;;;;;159.27;70.70;;;;;;;13.66;74.16;98981.59;4840803;29;20064;-63
2023/01/13 10:01:47;;;;;;;177.32;75.82;;;;;;;13.72;74.76;98990.59;4841855;29;20053;-62
2023/01/13 10:04:23;;;;;;;164.18;75.18;;;;;;;13.74;73.75;98992.03;4842678;29;20058;-61
2023/01/13 10:07:14;;;;;;;169.52;75.35;;;;;;;13.77;74.20;98999.59;4842259;29;20523;-63
2023/01/13 10:10:07;;;;;;;187.18;79.65;;;;;;;13.84;74.84;98994.28;4839484;29;20121;-62
2023/01/13 10:16:17;;;;;;;176.80;79.25;;;;;;;13.89;74.63;98995.31;4829193;29;20787;-61
2023/01/13 10:19:11;;;;;;;184.05;78.55;;;;;;;13.93;74.62;98991.19;4832162;29;20068;-61
2023/01/13 10:22:47;;;;;;;194.88;82.18;;;;;;;14.24;74.12;99003.03;4833040;29;20145;-62
2023/01/13 10:25:50;;;;;;;176.50;78.47;;;;;;;14.14;73.04;99000.78;4832389;29;20173;-61
2023/01/13 10:28:40;;;;;;;182.43;78.95;;;;;;;14.05;73.61;98996.69;4829024;29;20053;-62
2023/01/13 10:31:23;;;;;;;177.20;81.95;;;;;;;14.09;73.67;98989.94;4831888;29;20842;-64
2023/01/13 10:34:15;;;;;;;185.30;82.00;;;;;;;14.10;73.83;98996.91;4832418;29;20497;-63
2023/01/13 10:37:11;;;;;;;192.50;82.70;;;;;;;14.13;74.40;99003.63;4844337;29;20820;-61
2023/01/13 10:40:01;;;;;;;191.98;83.15;;;;;;;14.22;73.83;99005.88;4849787;29;20102;-62
2023/01/13 10:42:44;;;;;;;186.70;83.35;;;;;;;14.18;73.29;99004.66;4849898;29;20477;-61
2023/01/13 10:46:02;;;;;;;185.40;83.75;;;;;;;14.31;73.97;99009.97;4849913;29;20061;-61
2023/01/13 10:48:52;;;;;;;168.15;74.35;;;;;;;14.45;75.37;99015.28;4851759;29;20435;-64
2023/01/13 10:51:44;;;;;;;161.50;74.75;;;;;;;14.61;74.31;99014.81;4849697;29;20049;-62
2023/01/13 10:54:26;;;;;;;159.90;73.55;;;;;;;14.51;74.20;99019.78;4858371;29;20088;-62
2023/01/13 10:57:29;;;;;;;162.85;76.82;;;;;;;14.64;74.93;99009.09;4852624;29;20080;-63
2023/01/13 11:00:27;;;;;;;173.43;78.07;;;;;;;14.40;74.37;99018.56;4853354;29;20046;-61
2023/01/13 11:03:27;;;;;;;167.75;78.68;;;;;;;14.31;73.65;99023.28;4850606;29;20125;-61
2023/01/13 11:06:23;;;;;;;163.97;77.63;;;;;;;14.19;74.02;99024.97;4850392;29;20058;-62
2023/01/13 11:09:27;;;;;;;163.23;72.47;;;;;;;14.15;75.32;99015.75;4848181;29;20701;-61
2023/01/13 11:12:32;;;;;;;158.38;70.05;;;;;;;13.98;74.27;99038.50;4849140;29;20058;-66
2023/01/13 11:15:30;;;;;;;147.93;64.15;;;;;;;13.77;75.14;99039.50;4847140;29;20113;-62
2023/01/13 11:18:39;;;;;;;154.07;68.40;;;;;;;13.81;74.93;99038.06;4850600;29;20540;-62
2023/01/13 11:21:35;;;;;;;145.45;66.47;;;;;;;13.82;75.16;99031.75;4852558;29;20145;-61
2023/01/13 11:24:37;;;;;;;155.10;67.68;;;;;;;13.58;75.89;99029.69;4848045;29;20065;-61
2023/01/13 11:27:41;;;;;;;145.73;63.17;;;;;;;13.57;75.65;99028.06;4849907;29;20085;-61
2023/01/13 11:30:35;;;;;;;140.15;64.88;;;;;;;13.60;76.51;99030.28;4854114;29;20872;-62
2023/01/13 11:33:31;;;;;;;156.50;64.50;;;;;;;13.58;76.18;99039.53;4856126;29;20081;-62
2023/01/13 11:36:25;;;;;;;152.93;66.53;;;;;;;13.54;76.15;99039.13;4849896;29;20080;-60
2023/01/13 11:39:25;;;;;;;154.88;66.05;;;;;;;13.46;76.70;99044.59;4516063;29;10000427;-60
2023/01/13 11:42:19;;;;;;;152.05;65.35;;;;;;;13.52;77.56;99040.31;4850922;29;20053;-60
2023/01/13 11:45:20;;;;;;;149.73;62.50;;;;;;;13.50;77.71;99040.50;4850076;29;20057;-61
2023/01/13 11:48:06;;;;;;;144.88;63.95;;;;;;;13.50;76.88;99038.69;4850192;29;20057;-61
2023/01/13 11:51:21;;;;;;;148.95;60.42;;;;;;;13.45;75.84;99035.00;4843740;29;20579;-61
2023/01/13 11:54:23;;;;;;;145.73;63.70;;;;;;;13.70;76.15;99025.41;4844666;29;20053;-61
2023/01/13 11:57:30;;;;;;;149.75;64.78;;;;;;;13.43;75.68;99034.38;4841732;29;20056;-61
2023/01/13 12:00:41;;;;;;;159.63;66.85;;;;;;;13.40;76.26;99038.28;4849706;29;20059;-61
2023/01/13 12:04:11;;;;;;;149.68;64.97;;;;;;;13.41;77.00;99031.09;4847971;29;20093;-61
2023/01/13 12:07:19;;;;;;;151.43;67.05;;;;;;;13.50;77.23;99043.16;4851075;29;20053;-61
2023/01/13 12:10:12;;;;;;;154.75;69.45;;;;;;;13.45;76.73;99035.78;4849481;29;20128;-61
2023/01/13 12:13:11;;;;;;;168.38;72.38;;;;;;;13.43;76.60;99043.19;4857815;29;20048;-63
2023/01/13 12:15:57;;;;;;;154.93;67.05;;;;;;;13.46;76.49;99034.78;4857712;29;20053;-64
2023/01/13 12:19:23;;;;;;;160.02;68.43;;;;;;;13.41;75.99;99037.22;4853603;29;20054;-61
2023/01/13 12:22:21;;;;;;;149.18;66.30;;;;;;;13.45;75.84;99038.47;4856391;29;20081;-62
2023/01/13 12:25:36;;;;;;;157.10;66.68;;;;;;;13.54;76.05;99033.78;4850998;29;20049;-62
2023/01/13 12:28:53;;;;;;;144.20;62.65;;;;;;;13.39;76.18;99036.63;4847095;29;20868;-65
2023/01/13 12:31:43;;;;;;;143.83;62.63;;;;;;;13.43;75.74;99042.34;4839496;29;20442;-59
2023/01/13 12:34:38;;;;;;;144.15;61.92;;;;;;;13.56;74.73;99029.06;4847759;29;20136;-63
2023/01/13 12:37:49;;;;;;;146.98;61.40;;;;;;;13.52;75.08;99042.97;4845664;29;20593;-61
2023/01/13 12:40:37;;;;;;;;;;;;;;;13.55;74.88;99045.22;4843158;29;20478;-62
2023/01/13 12:46:27;;;;;;;152.85;62.08;;;;;;;13.72;75.14;99043.84;4853727;29;20633;-61
2023/01/13 12:49:27;;;;;;;152.32;64.20;;;;;;;13.71;74.12;99036.88;4842677;29;20144;-57
2023/01/13 12:52:13;;;;;;;148.55;67.90;;;;;;;13.64;74.90;99049.34;4848703;29;20041;-63
2023/01/13 12:55:08;;;;;;;153.90;68.33;;;;;;;13.57;75.37;99060.00;4848172;29;20784;-66
2023/01/13 12:58:04;;;;;;;151.85;67.10;;;;;;;13.55;75.05;99053.22;4852918;29;20281;-63
2023/01/13 13:00:58;;;;;;;159.93;70.15;;;;;;;13.67;75.72;99062.25;4850153;29;20053;-66
2023/01/13 13:03:41;;;;;;;175.40;75.65;;;;;;;13.58;75.13;99058.16;4853277;29;20049;-65
2023/01/13 13:06:38;;;;;;;174.10;74.80;;;;;;;13.69;75.17;99065.50;4848904;29;20045;-64
2023/01/13 13:09:54;;;;;;;176.85;72.55;;;;;;;13.59;75.10;99065.91;4855000;29;20061;-69
2023/01/13 13:15:43;;;;;;;176.48;75.40;;;;;;;13.46;75.69;99069.38;4851260;29;20144;-66
2023/01/13 13:18:39;;;;;;;170.30;76.80;;;;;;;13.33;75.57;99076.50;4510698;29;10000516;-69
2023/01/13 13:21:15;;;;;;;182.18;77.20;;;;;;;13.54;75.20;99083.53;4858056;29;20768;-67
2023/01/13 13:24:17;;;;;;;194.43;80.80;;;;;;;13.54;74.20;99081.69;4853093;29;20469;-69
2023/01/13 13:26:53;;;;;;;179.38;78.75;;;;;;;13.66;74.33;99089.88;4821573;29;20064;-69
2023/01/13 13:30:04;;;;;;;177.23;81.22;;;;;;;13.79;73.71;99097.88;4851851;29;20049;-69
2023/01/13 13:32:58;;;;;;;189.02;82.13;;;;;;;13.73;73.80;99091.53;4854510;29;20482;-63
2023/01/13 13:36:04;;;;;;;191.50;82.40;;;;;;;13.44;74.91;99106.03;4835920;29;20073;-63
2023/01/13 13:46:45;;;;;;;167.98;78.72;;;;;;;13.36;75.47;99116.84;4850256;29;20064;-63
2023/01/13 13:48:42;;;;;;;173.27;74.97;;;;;;;13.04;76.22;99126.31;4853097;29;20057;-61
2023/01/13 13:51:36;;;;;;;166.82;74.85;;;;;;;13.11;75.79;99123.69;4854597;29;20045;-69
2023/01/13 13:54:28;;;;;;;172.35;76.75;;;;;;;13.05;76.43;99127.91;4848695;29;20068;-70
2023/01/13 13:57:20;;;;;;;158.68;74.43;;;;;;;13.16;76.08;99126.59;4860543;29;20045;-68
2023/01/13 14:00:43;;;;;;;161.80;74.70;;;;;;;13.10;76.16;99132.66;4852193;29;20057;-70